This is the latest recevied weather packets stored in our database for station/object KC1DMA. If no packets are shown the sender has not sent any weather packets the latest 10 day(s).
| Time | Temp. | Humidity | Pressure | Rain* | Wind** | Luminosity | Snow |
|---|---|---|---|---|---|---|---|
| 1777930952 | 19.44° C | 45% | 1011 hPa | - | - | 255 W/m² | - |
| 1777930649 | 18.89° C | 45% | 1010.9 hPa | - | - | 271 W/m² | - |
| 1777930346 | 18.89° C | 44% | 1010.9 hPa | - | - | 287 W/m² | - |
| 1777930043 | 20° C | 43% | 1010.9 hPa | - | - | 296 W/m² | - |
| 1777929739 | 19.44° C | 43% | 1010.9 hPa | - | - | 317 W/m² | - |
| 1777929437 | 18.89° C | 44% | 1010.8 hPa | - | - | 330 W/m² | - |
| 1777929133 | 19.44° C | 44% | 1010.9 hPa | - | - | 346 W/m² | - |
| 1777928830 | 19.44° C | 43% | 1010.9 hPa | - | - | 354 W/m² | - |
| 1777928527 | 20° C | 43% | 1010.9 hPa | - | - | 376 W/m² | - |
| 1777928224 | 19.44° C | 44% | 1010.9 hPa | - | - | 409 W/m² | - |
| 1777927921 | 19.44° C | 44% | 1010.8 hPa | - | - | 431 W/m² | - |
| 1777927620 | 20° C | 42% | 1010.9 hPa | - | - | 384 W/m² | - |
| 1777927319 | 19.44° C | 42% | 1010.9 hPa | - | - | 454 W/m² | - |
| 1777927017 | 20° C | 42% | 1010.9 hPa | - | - | 457 W/m² | - |
| 1777926714 | 20° C | 41% | 1010.6 hPa | - | - | 488 W/m² | - |
| 1777926409 | 20° C | 42% | 1010.6 hPa | - | - | 513 W/m² | - |
| 1777926106 | 20° C | 41% | 1010.7 hPa | - | - | 228 W/m² | - |
| 1777925803 | 20.56° C | 41% | 1011 hPa | - | - | 535 W/m² | - |
| 1777925500 | 20° C | 40% | 1010.9 hPa | - | - | 541 W/m² | - |
| 1777925197 | 20.56° C | 41% | 1011 hPa | - | - | 563 W/m² | - |
| 1777924894 | 20° C | 41% | 1010.8 hPa | - | - | 578 W/m² | - |
| 1777924590 | 20.56° C | 40% | 1011.2 hPa | - | - | 579 W/m² | - |
| 1777924286 | 20° C | 39% | 1010.8 hPa | - | - | 617 W/m² | - |
| 1777923983 | 20° C | 40% | 1011 hPa | - | - | 595 W/m² | - |
| 1777923679 | 20.56° C | 39% | 1011 hPa | - | - | 609 W/m² | - |
* Rain since midnight (hover to see other rain measurements)
** Current wind speed in m/s (hover to see current wind gust speed)